createdAt,value
2023-02-21T00:01:00.107Z,8.32
2023-02-21T00:04:02.680Z,8.18
2023-02-21T00:06:56.726Z,8.24
2023-02-21T00:09:50.720Z,8.36
2023-02-21T00:12:47.799Z,8.33
2023-02-21T00:15:49.866Z,8.12
2023-02-21T00:18:53.857Z,8.04
2023-02-21T00:21:51.672Z,8.38
2023-02-21T00:25:05.870Z,8.46
2023-02-21T00:27:59.076Z,8.24
2023-02-21T00:30:58.894Z,8.20
2023-02-21T00:34:00.761Z,8.26
2023-02-21T00:36:54.313Z,8.16
2023-02-21T00:39:48.107Z,8.16
2023-02-21T00:42:47.849Z,8.20
2023-02-21T00:45:50.908Z,8.18
2023-02-21T00:48:42.516Z,8.09
2023-02-21T00:51:41.310Z,8.10
2023-02-21T00:54:39.779Z,8.41
2023-02-21T00:57:31.875Z,8.53
2023-02-21T01:00:26.791Z,8.60
2023-02-21T01:03:29.561Z,8.61
2023-02-21T01:06:26.915Z,8.58
2023-02-21T01:09:29.316Z,8.53
2023-02-21T01:12:35.119Z,8.44
2023-02-21T01:15:33.031Z,8.23
2023-02-21T01:18:29.447Z,8.22
2023-02-21T01:21:26.096Z,8.12
2023-02-21T01:24:20.883Z,8.09
2023-02-21T01:27:17.221Z,8.04
2023-02-21T01:30:14.838Z,8.03
2023-02-21T01:33:06.359Z,8.05
2023-02-21T01:36:08.881Z,8.20
2023-02-21T01:39:05.098Z,8.25
2023-02-21T01:42:04.628Z,8.28
2023-02-21T01:45:02.769Z,8.46
2023-02-21T01:47:56.690Z,8.48
2023-02-21T01:50:53.919Z,8.37
2023-02-21T01:53:53.761Z,8.45
2023-02-21T01:56:51.868Z,8.40
2023-02-21T01:59:51.582Z,8.45
2023-02-21T02:03:12.128Z,8.39
2023-02-21T02:06:29.820Z,8.36
2023-02-21T02:09:33.381Z,8.38
2023-02-21T02:12:45.195Z,8.51
2023-02-21T02:15:46.236Z,8.38
2023-02-21T02:18:46.185Z,8.31
2023-02-21T02:21:39.104Z,8.39
2023-02-21T02:24:25.352Z,8.44
2023-02-21T02:27:37.035Z,8.39
2023-02-21T02:30:40.303Z,8.37
2023-02-21T02:34:10.095Z,8.32
2023-02-21T02:37:12.076Z,8.24
2023-02-21T02:40:25.103Z,8.33
2023-02-21T02:43:59.859Z,8.51
2023-02-21T02:46:43.857Z,8.44
2023-02-21T02:49:42.526Z,8.40
2023-02-21T02:52:35.021Z,8.35
2023-02-21T02:55:46.135Z,8.39
2023-02-21T02:58:32.542Z,8.52
2023-02-21T03:01:32.506Z,8.52
2023-02-21T03:04:42.328Z,8.56
2023-02-21T03:08:08.166Z,8.74
2023-02-21T03:11:21.855Z,8.93
2023-02-21T03:14:22.112Z,8.87
2023-02-21T03:17:04.083Z,8.98
2023-02-21T03:19:47.432Z,8.97
2023-02-21T03:22:31.035Z,9.13
2023-02-21T03:25:19.535Z,9.26
2023-02-21T03:28:00.894Z,9.26
2023-02-21T03:30:54.874Z,9.31
2023-02-21T03:33:32.214Z,9.37
2023-02-21T03:36:22.204Z,9.44
2023-02-21T03:39:16.113Z,9.35
2023-02-21T03:42:00.491Z,9.30
2023-02-21T03:44:41.430Z,9.29
2023-02-21T03:47:25.555Z,9.34
2023-02-21T03:50:07.544Z,9.27
2023-02-21T03:52:54.056Z,9.41
2023-02-21T03:55:40.450Z,9.27
2023-02-21T03:58:33.635Z,9.28
2023-02-21T04:01:19.931Z,9.29
2023-02-21T04:04:00.441Z,9.32
2023-02-21T04:06:46.571Z,9.26
2023-02-21T04:09:20.899Z,9.07
2023-02-21T04:12:07.027Z,9.12
2023-02-21T04:15:02.506Z,9.03
2023-02-21T04:17:45.948Z,8.91
2023-02-21T04:20:21.779Z,8.88
2023-02-21T04:23:03.748Z,8.93
2023-02-21T04:25:44.089Z,8.77
2023-02-21T04:28:24.262Z,8.70
2023-02-21T04:31:02.522Z,8.64
2023-02-21T04:33:54.912Z,8.47
2023-02-21T04:36:53.519Z,8.42
2023-02-21T04:39:38.140Z,8.14
2023-02-21T04:42:29.698Z,8.15
2023-02-21T04:45:09.269Z,8.05
2023-02-21T04:47:51.070Z,8.05
2023-02-21T04:50:36.294Z,8.04
2023-02-21T04:53:12.277Z,8.14
2023-02-21T04:56:06.041Z,8.09
2023-02-21T04:58:51.630Z,8.11
2023-02-21T05:01:38.923Z,7.95
2023-02-21T05:04:31.800Z,7.94
2023-02-21T05:07:29.948Z,7.88
2023-02-21T05:10:22.099Z,7.81
2023-02-21T05:13:09.851Z,7.78
2023-02-21T05:15:48.264Z,7.75
2023-02-21T05:18:39.789Z,7.86
2023-02-21T05:21:24.492Z,7.88
2023-02-21T05:24:05.089Z,7.97
2023-02-21T05:26:44.280Z,8.13
2023-02-21T05:29:28.086Z,8.19
2023-02-21T05:32:09.702Z,8.25
2023-02-21T05:34:56.503Z,8.31
2023-02-21T05:37:46.650Z,8.53
2023-02-21T05:40:33.588Z,8.56
2023-02-21T05:43:28.056Z,8.61
2023-02-21T05:46:07.782Z,8.66
2023-02-21T05:48:56.451Z,8.73
2023-02-21T05:51:41.848Z,8.77
2023-02-21T05:54:30.113Z,8.82
2023-02-21T05:57:13.214Z,8.82
2023-02-21T06:00:04.614Z,9.02
2023-02-21T06:02:52.623Z,9.10
2023-02-21T06:05:38.369Z,9.11
2023-02-21T06:08:24.629Z,9.24
2023-02-21T06:11:11.183Z,9.29
2023-02-21T06:14:01.094Z,9.21
2023-02-21T06:16:35.972Z,9.29
2023-02-21T06:19:21.836Z,9.32
2023-02-21T06:22:11.641Z,9.39
2023-02-21T06:24:57.669Z,9.44
2023-02-21T06:27:36.139Z,9.49
2023-02-21T06:30:13.187Z,9.51
2023-02-21T06:32:56.639Z,9.59
2023-02-21T06:35:44.736Z,9.73
2023-02-21T06:38:25.950Z,9.87
2023-02-21T06:41:09.118Z,9.98
2023-02-21T06:43:49.845Z,10.08
2023-02-21T06:46:32.396Z,10.10
2023-02-21T06:49:14.336Z,10.22
2023-02-21T06:51:58.428Z,10.31
2023-02-21T06:54:47.243Z,10.45
2023-02-21T06:57:28.685Z,10.50
2023-02-21T07:00:04.103Z,10.56
2023-02-21T07:02:58.168Z,10.66
2023-02-21T07:05:39.393Z,10.68
2023-02-21T07:08:23.366Z,10.79
2023-02-21T07:11:01.976Z,10.74
2023-02-21T07:14:04.793Z,10.70
2023-02-21T07:16:54.300Z,10.72
2023-02-21T07:19:43.673Z,10.72
2023-02-21T07:22:26.254Z,10.91
2023-02-21T07:25:06.480Z,11.00
2023-02-21T07:28:06.112Z,11.02
2023-02-21T07:30:53.223Z,11.07
2023-02-21T07:33:37.050Z,11.08
2023-02-21T07:36:22.738Z,11.00
2023-02-21T07:39:08.834Z,10.90
2023-02-21T07:42:00.812Z,10.98
2023-02-21T07:44:50.099Z,11.05
2023-02-21T07:47:32.808Z,10.96
2023-02-21T07:50:16.739Z,10.95
2023-02-21T07:52:57.058Z,11.07
2023-02-21T07:55:37.858Z,10.93
2023-02-21T07:58:19.691Z,11.07
2023-02-21T08:01:10.026Z,11.19
2023-02-21T08:03:55.650Z,11.31
2023-02-21T08:06:39.705Z,11.40
2023-02-21T08:09:28.968Z,11.57
2023-02-21T08:12:18.013Z,11.52
2023-02-21T08:15:02.589Z,11.41
2023-02-21T08:17:53.919Z,11.51
2023-02-21T08:20:40.746Z,11.45
2023-02-21T08:23:34.090Z,11.67
2023-02-21T08:26:18.128Z,11.68
2023-02-21T08:28:57.633Z,11.63
2023-02-21T08:32:21.699Z,11.63
2023-02-21T08:35:06.685Z,11.76
2023-02-21T08:38:03.072Z,12.00
2023-02-21T08:40:46.324Z,11.82
2023-02-21T08:43:33.347Z,11.83
2023-02-21T08:46:12.732Z,11.98
2023-02-21T08:48:56.804Z,11.82
2023-02-21T08:51:42.113Z,11.82
2023-02-21T08:54:41.128Z,11.86
2023-02-21T08:57:25.072Z,11.99
2023-02-21T09:00:05.476Z,12.11
2023-02-21T09:02:48.825Z,12.10
2023-02-21T09:05:38.469Z,12.01
2023-02-21T09:08:22.330Z,12.13
2023-02-21T09:11:14.519Z,12.13
2023-02-21T09:14:03.388Z,12.21
2023-02-21T09:16:47.958Z,12.36
2023-02-21T09:19:28.167Z,12.48
2023-02-21T09:22:09.665Z,12.45
2023-02-21T09:24:51.033Z,12.50
2023-02-21T09:27:44.097Z,12.31
2023-02-21T09:30:29.428Z,12.42
2023-02-21T09:33:18.075Z,12.44
2023-02-21T09:36:03.669Z,12.27
2023-02-21T09:38:55.186Z,12.65
2023-02-21T09:41:38.304Z,12.58
2023-02-21T09:44:28.564Z,12.68
2023-02-21T09:47:08.993Z,12.99
2023-02-21T09:49:49.269Z,13.06
2023-02-21T09:52:49.748Z,12.91
2023-02-21T09:56:02.647Z,13.01
2023-02-21T09:58:57.042Z,13.09
2023-02-21T10:02:09.064Z,13.19
2023-02-21T10:05:06.232Z,13.20
2023-02-21T10:07:58.032Z,13.12
2023-02-21T10:10:56.723Z,12.97
2023-02-21T10:14:19.453Z,13.12
2023-02-21T10:17:28.361Z,13.20
2023-02-21T10:20:18.883Z,13.20
2023-02-21T10:23:17.145Z,13.12
2023-02-21T10:26:08.111Z,13.10
2023-02-21T10:29:00.001Z,12.99
2023-02-21T10:31:48.625Z,12.90
2023-02-21T10:34:41.042Z,13.25
2023-02-21T10:37:34.613Z,13.51
2023-02-21T10:40:35.429Z,13.38
2023-02-21T10:43:32.622Z,13.17
2023-02-21T10:46:40.904Z,13.06
2023-02-21T10:49:29.640Z,12.99
2023-02-21T10:52:29.562Z,13.13
2023-02-21T10:55:33.073Z,13.01
2023-02-21T10:58:30.030Z,13.01
2023-02-21T11:01:25.715Z,13.27
2023-02-21T11:04:36.919Z,13.16
2023-02-21T11:07:36.809Z,13.28
2023-02-21T11:10:46.235Z,13.34
2023-02-21T11:13:31.953Z,13.35
2023-02-21T11:16:32.843Z,13.41
2023-02-21T11:19:17.944Z,13.68
2023-02-21T11:22:10.072Z,13.83
2023-02-21T11:25:43.242Z,13.90
2023-02-21T11:28:29.340Z,13.83
2023-02-21T11:31:26.123Z,13.76
2023-02-21T11:34:09.269Z,13.77
2023-02-21T11:36:54.559Z,14.00
2023-02-21T11:39:44.091Z,13.97
2023-02-21T11:42:34.637Z,13.90
2023-02-21T11:45:40.603Z,13.94
2023-02-21T11:48:31.343Z,13.93
2023-02-21T11:51:12.710Z,13.82
2023-02-21T11:53:51.061Z,14.03
2023-02-21T11:57:06.810Z,14.31
2023-02-21T12:00:13.373Z,14.34
2023-02-21T12:03:01.612Z,14.21
2023-02-21T12:06:14.778Z,14.30
2023-02-21T12:09:05.054Z,14.25
2023-02-21T12:12:02.658Z,14.35
2023-02-21T12:14:57.548Z,14.49
2023-02-21T12:18:01.049Z,14.46
2023-02-21T12:20:53.529Z,14.56
2023-02-21T12:23:52.077Z,14.41
2023-02-21T12:26:59.258Z,14.41
2023-02-21T12:30:23.671Z,14.44
2023-02-21T12:33:30.737Z,14.13
2023-02-21T12:36:44.964Z,14.11
2023-02-21T12:40:03.689Z,14.24
2023-02-21T12:42:57.114Z,14.24
2023-02-21T12:46:10.042Z,14.30
2023-02-21T12:48:51.087Z,14.43
2023-02-21T12:51:48.486Z,14.28
2023-02-21T12:54:48.636Z,14.49
2023-02-21T12:58:00.678Z,14.45
2023-02-21T13:00:58.673Z,14.08
2023-02-21T13:03:59.213Z,13.89
2023-02-21T13:06:52.236Z,13.79
2023-02-21T13:09:52.269Z,14.06
2023-02-21T13:12:53.498Z,14.21
2023-02-21T13:15:35.208Z,14.00
2023-02-21T13:18:24.705Z,14.09
2023-02-21T13:21:31.337Z,14.20
2023-02-21T13:24:17.054Z,14.12
2023-02-21T13:27:23.545Z,14.22
2023-02-21T13:30:08.356Z,14.20
2023-02-21T13:33:01.706Z,14.19
2023-02-21T13:35:55.925Z,14.24
2023-02-21T13:38:37.422Z,14.12
2023-02-21T13:41:17.077Z,14.41
2023-02-21T13:43:56.100Z,14.12
2023-02-21T13:47:12.316Z,14.22
2023-02-21T13:49:57.765Z,14.13
2023-02-21T13:53:06.074Z,14.16
2023-02-21T13:56:18.049Z,14.10
2023-02-21T13:59:00.082Z,14.10
2023-02-21T14:02:19.550Z,14.33
2023-02-21T14:05:16.081Z,14.31
2023-02-21T14:08:00.885Z,14.32
2023-02-21T14:10:41.150Z,14.23
2023-02-21T14:13:46.961Z,13.76
2023-02-21T14:16:34.172Z,13.66
2023-02-21T14:19:49.955Z,13.82
2023-02-21T14:22:32.470Z,13.81
2023-02-21T14:25:21.614Z,13.87
2023-02-21T14:28:27.583Z,13.95
2023-02-21T14:31:15.242Z,13.82
2023-02-21T14:34:00.241Z,13.99
2023-02-21T14:36:42.598Z,14.02
2023-02-21T14:39:18.374Z,14.08
2023-02-21T14:42:21.356Z,14.03
2023-02-21T14:45:15.021Z,13.91
2023-02-21T14:48:34.942Z,13.82
2023-02-21T14:51:58.163Z,13.77
2023-02-21T14:55:40.651Z,13.58
2023-02-21T14:58:51.586Z,13.43
2023-02-21T15:01:59.269Z,13.41
2023-02-21T15:04:40.036Z,13.37
2023-02-21T15:07:29.004Z,13.62
2023-02-21T15:10:46.036Z,13.50
2023-02-21T15:13:40.062Z,13.51
2023-02-21T15:16:21.445Z,13.59
2023-02-21T15:19:05.230Z,13.71
2023-02-21T15:21:50.450Z,13.68
2023-02-21T15:24:30.061Z,13.59
2023-02-21T15:27:22.083Z,13.80
2023-02-21T15:30:17.169Z,13.91
2023-02-21T15:33:14.770Z,13.88
2023-02-21T15:36:04.488Z,13.79
2023-02-21T15:38:55.563Z,13.51
2023-02-21T15:41:55.115Z,13.38
2023-02-21T15:44:39.050Z,13.29
2023-02-21T15:47:23.738Z,13.34
2023-02-21T15:50:18.774Z,13.15
2023-02-21T15:53:16.213Z,13.13
2023-02-21T15:55:54.262Z,13.02
2023-02-21T15:58:39.788Z,13.01
2023-02-21T16:01:36.619Z,12.91
2023-02-21T16:04:35.292Z,12.72
2023-02-21T16:07:37.284Z,12.60
2023-02-21T16:10:31.949Z,12.57
2023-02-21T16:13:14.822Z,12.44
2023-02-21T16:16:02.166Z,12.32
2023-02-21T16:18:47.323Z,12.31
2023-02-21T16:21:29.936Z,12.21
2023-02-21T16:24:34.759Z,12.07
2023-02-21T16:27:24.703Z,12.19
2023-02-21T16:30:09.115Z,12.09
2023-02-21T16:32:54.756Z,12.13
2023-02-21T16:35:37.654Z,12.09
2023-02-21T16:38:25.567Z,12.04
2023-02-21T16:41:18.890Z,12.08
2023-02-21T16:44:03.189Z,12.04
2023-02-21T16:46:53.803Z,12.06
2023-02-21T16:49:46.852Z,12.07
2023-02-21T16:52:34.328Z,12.12
2023-02-21T16:55:18.144Z,11.99
2023-02-21T16:58:13.629Z,12.20
2023-02-21T17:00:58.059Z,12.22
2023-02-21T17:03:47.030Z,12.12
2023-02-21T17:06:36.944Z,12.11
2023-02-21T17:09:28.315Z,12.01
2023-02-21T17:12:20.974Z,12.10
2023-02-21T17:15:07.135Z,12.22
2023-02-21T17:17:53.851Z,12.15
2023-02-21T17:20:39.214Z,12.12
2023-02-21T17:23:31.407Z,12.21
2023-02-21T17:26:16.257Z,12.28
2023-02-21T17:28:58.041Z,12.19
2023-02-21T17:31:48.359Z,12.16
2023-02-21T17:34:37.863Z,12.16
2023-02-21T17:37:19.809Z,12.05
2023-02-21T17:40:16.852Z,12.10
2023-02-21T17:42:59.451Z,12.16
2023-02-21T17:45:44.032Z,12.15
2023-02-21T17:48:33.708Z,12.15
2023-02-21T17:51:35.477Z,12.12
2023-02-21T17:54:28.259Z,12.14
2023-02-21T17:57:13.053Z,12.12
2023-02-21T17:59:51.093Z,12.09
2023-02-21T18:02:46.703Z,12.09
2023-02-21T18:05:46.053Z,11.98
2023-02-21T18:08:24.466Z,11.86
2023-02-21T18:11:19.697Z,11.89
2023-02-21T18:14:02.017Z,11.92
2023-02-21T18:16:48.806Z,11.83
2023-02-21T18:19:31.897Z,11.91
2023-02-21T18:22:31.064Z,11.72
2023-02-21T18:25:14.457Z,11.82
2023-02-21T18:27:59.022Z,11.86
2023-02-21T18:30:50.062Z,11.90
2023-02-21T18:33:33.752Z,11.87
2023-02-21T18:36:24.650Z,11.93
2023-02-21T18:39:12.004Z,11.89
2023-02-21T18:42:01.762Z,11.89
2023-02-21T18:44:40.219Z,11.88
2023-02-21T18:47:40.742Z,11.86
2023-02-21T18:50:36.670Z,11.85
2023-02-21T18:53:27.517Z,11.71
2023-02-21T18:56:08.292Z,11.71
2023-02-21T18:58:50.111Z,11.81
2023-02-21T19:01:37.453Z,11.71
2023-02-21T19:04:23.994Z,11.68
2023-02-21T19:07:17.236Z,11.62
2023-02-21T19:10:16.354Z,11.53
2023-02-21T19:12:59.663Z,11.56
2023-02-21T19:15:43.668Z,11.48
2023-02-21T19:18:19.367Z,11.46
2023-02-21T19:21:00.538Z,11.35
2023-02-21T19:23:45.301Z,11.40
2023-02-21T19:26:38.102Z,11.33
2023-02-21T19:29:27.449Z,11.21
2023-02-21T19:32:08.058Z,11.19
2023-02-21T19:34:58.547Z,11.18
2023-02-21T19:37:45.050Z,11.10
2023-02-21T19:40:27.282Z,11.02
2023-02-21T19:43:16.290Z,10.99
2023-02-21T19:46:09.080Z,10.76
2023-02-21T19:48:55.946Z,10.76
2023-02-21T19:54:42.941Z,10.61
2023-02-21T19:57:33.995Z,10.60
2023-02-21T20:00:17.771Z,10.52
2023-02-21T20:03:12.674Z,10.55
2023-02-21T20:06:08.430Z,10.61
2023-02-21T20:08:58.825Z,10.56
2023-02-21T20:11:42.819Z,10.59
2023-02-21T20:14:26.535Z,10.48
2023-02-21T20:17:18.198Z,10.33
2023-02-21T20:20:00.067Z,10.20
2023-02-21T20:22:55.375Z,10.21
2023-02-21T20:25:51.524Z,10.24
2023-02-21T20:28:34.685Z,10.04
2023-02-21T20:31:16.478Z,9.96
2023-02-21T20:34:12.010Z,10.00
2023-02-21T20:36:53.443Z,10.05
2023-02-21T20:39:35.060Z,10.03
2023-02-21T20:42:10.573Z,10.04
2023-02-21T20:45:01.995Z,9.91
2023-02-21T20:47:51.198Z,9.76
2023-02-21T20:50:44.502Z,9.73
2023-02-21T20:53:31.882Z,9.64
2023-02-21T20:56:15.336Z,9.45
2023-02-21T20:59:03.840Z,9.33
2023-02-21T21:01:56.112Z,9.30
2023-02-21T21:04:40.149Z,9.27
2023-02-21T21:07:36.041Z,9.30
2023-02-21T21:10:35.495Z,9.27
2023-02-21T21:13:21.160Z,9.12
2023-02-21T21:16:11.352Z,9.10
2023-02-21T21:18:57.472Z,9.15
2023-02-21T21:21:42.443Z,9.05
2023-02-21T21:24:25.428Z,9.02
2023-02-21T21:27:10.281Z,8.96
2023-02-21T21:29:49.068Z,8.72
2023-02-21T21:32:27.237Z,8.58
2023-02-21T21:35:10.066Z,8.34
2023-02-21T21:38:04.407Z,8.17
2023-02-21T21:40:54.438Z,8.01
2023-02-21T21:43:46.206Z,7.94
2023-02-21T21:46:35.483Z,7.72
2023-02-21T21:49:27.375Z,7.56
2023-02-21T21:55:18.036Z,7.40
2023-02-21T21:58:10.638Z,7.38
2023-02-21T22:00:54.566Z,7.33
2023-02-21T22:03:45.078Z,7.29
2023-02-21T22:06:23.687Z,7.21
2023-02-21T22:09:10.461Z,7.28
2023-02-21T22:11:56.589Z,7.17
2023-02-21T22:14:38.132Z,7.12
2023-02-21T22:17:16.082Z,7.01
2023-02-21T22:20:00.257Z,6.93
2023-02-21T22:22:50.693Z,6.90
2023-02-21T22:25:30.579Z,6.79
2023-02-21T22:28:19.079Z,6.69
2023-02-21T22:31:00.184Z,6.80
2023-02-21T22:33:32.466Z,6.78
2023-02-21T22:36:24.628Z,6.78
2023-02-21T22:39:11.308Z,6.69
2023-02-21T22:41:52.723Z,6.73
2023-02-21T22:44:43.200Z,6.53
2023-02-21T22:47:31.741Z,6.44
2023-02-21T22:50:13.302Z,6.39
2023-02-21T22:52:52.665Z,6.38
2023-02-21T22:55:52.493Z,6.28
2023-02-21T22:58:38.813Z,6.33
2023-02-21T23:01:37.402Z,6.27
2023-02-21T23:04:25.892Z,6.19
2023-02-21T23:07:11.288Z,6.08
2023-02-21T23:09:56.049Z,6.05
2023-02-21T23:12:44.533Z,6.11
2023-02-21T23:15:27.077Z,6.12
2023-02-21T23:18:10.954Z,6.08
2023-02-21T23:20:54.135Z,5.92
2023-02-21T23:23:40.579Z,5.87
2023-02-21T23:26:22.232Z,5.80
2023-02-21T23:29:05.600Z,5.63
2023-02-21T23:32:01.038Z,5.43
2023-02-21T23:34:55.549Z,5.34
2023-02-21T23:37:44.277Z,5.33
2023-02-21T23:40:34.093Z,5.33
2023-02-21T23:43:29.103Z,5.19
2023-02-21T23:46:08.172Z,5.10
2023-02-21T23:48:49.274Z,5.03
2023-02-21T23:51:32.917Z,4.96
2023-02-21T23:54:18.159Z,4.93
2023-02-21T23:57:01.143Z,4.97
2023-02-21T23:59:52.823Z,4.97
